Time;durP1;ratioP1;P1;durP2;ratioP2;P2;SDS_P1;SDS_P2;PMS_P1;PMS_P2;Temp;Humidity;BMP_temperature;BMP_pressure;BME280_temperature;BME280_humidity;BME280_pressure;Samples;Min_cycle;Max_cycle;Signal;HPM_P1;HPM_P2
2023/09/14 00:01:25;;;;;;;7.38;2.47;;;12.80;99.90;;;;;;5056692;28;20045;-67
2023/09/14 00:03:52;;;;;;;7.93;2.55;;;12.80;99.90;;;;;;5055326;28;20052;-68
2023/09/14 00:06:19;;;;;;;9.55;3.25;;;12.80;99.90;;;;;;5056635;28;20056;-67
2023/09/14 00:08:46;;;;;;;8.30;2.55;;;12.80;99.90;;;;;;5056916;28;20488;-68
2023/09/14 00:11:13;;;;;;;8.50;3.20;;;12.80;99.90;;;;;;5056046;28;20060;-68
2023/09/14 00:13:42;;;;;;;8.25;2.60;;;12.80;99.90;;;;;;5056081;28;20063;-67
2023/09/14 00:16:09;;;;;;;9.13;2.22;;;12.90;99.90;;;;;;5055825;28;20122;-68
2023/09/14 00:18:36;;;;;;;6.13;2.40;;;12.90;99.90;;;;;;5056697;28;20106;-68
2023/09/14 00:21:03;;;;;;;5.70;2.28;;;12.90;99.90;;;;;;5056628;28;20048;-66
2023/09/14 00:23:30;;;;;;;5.25;2.25;;;13.00;99.90;;;;;;5055855;28;20045;-66
2023/09/14 00:25:57;;;;;;;9.85;2.30;;;13.00;99.90;;;;;;5056424;28;20041;-67
2023/09/14 00:28:24;;;;;;;6.20;2.40;;;13.00;99.90;;;;;;5056411;28;20049;-67
2023/09/14 00:30:53;;;;;;;4.75;2.53;;;13.10;99.90;;;;;;5073816;28;20098;-67
2023/09/14 00:33:21;;;;;;;4.38;2.50;;;13.10;99.90;;;;;;5074295;28;20105;-67
2023/09/14 00:35:48;;;;;;;6.00;2.10;;;13.10;99.90;;;;;;5056517;28;20056;-67
2023/09/14 00:38:15;;;;;;;5.22;2.20;;;13.10;99.90;;;;;;5055673;28;20048;-67
2023/09/14 00:40:42;;;;;;;7.25;2.50;;;13.10;99.90;;;;;;5056276;28;20561;-67
2023/09/14 00:43:09;;;;;;;6.03;2.78;;;13.20;99.90;;;;;;5056103;28;20412;-68
2023/09/14 00:45:37;;;;;;;6.20;2.53;;;13.10;99.90;;;;;;5055407;28;20480;-67
2023/09/14 00:48:05;;;;;;;8.00;2.53;;;13.20;99.90;;;;;;5056109;28;20048;-68
2023/09/14 00:50:34;;;;;;;5.03;2.25;;;13.20;99.90;;;;;;5056072;28;20059;-67
2023/09/14 00:53:05;;;;;;;4.47;1.80;;;13.20;99.90;;;;;;5071359;28;20048;-67
2023/09/14 00:55:32;;;;;;;9.68;2.40;;;13.30;99.90;;;;;;5073680;28;20497;-67
2023/09/14 00:57:59;;;;;;;9.13;3.03;;;13.30;99.90;;;;;;5056090;28;20385;-67
2023/09/14 01:00:27;;;;;;;3.70;2.30;;;13.30;99.90;;;;;;5073124;28;20044;-67
2023/09/14 01:02:56;;;;;;;6.47;2.65;;;13.30;99.90;;;;;;5055935;28;20051;-66
2023/09/14 01:05:28;;;;;;;5.25;2.45;;;13.30;99.90;;;;;;5055073;28;20508;-68
2023/09/14 01:07:55;;;;;;;5.95;2.30;;;13.30;99.90;;;;;;5055574;28;20110;-66
2023/09/14 01:10:23;;;;;;;5.43;2.00;;;13.30;99.90;;;;;;5055717;28;20427;-65
2023/09/14 01:12:50;;;;;;;5.68;2.33;;;13.30;99.90;;;;;;5055064;28;20056;-65
2023/09/14 01:15:20;;;;;;;6.85;2.35;;;13.40;99.90;;;;;;5073483;28;20376;-66
2023/09/14 01:17:58;;;;;;;6.72;2.22;;;13.30;99.90;;;;;;5055322;28;20150;-66
2023/09/14 01:20:43;;;;;;;4.53;2.00;;;13.40;99.90;;;;;;5054847;28;20585;-66
2023/09/14 01:23:27;;;;;;;6.43;2.85;;;13.30;99.90;;;;;;5055070;28;20056;-67
2023/09/14 01:25:56;;;;;;;6.32;2.42;;;13.30;99.90;;;;;;5072591;28;20396;-67
2023/09/14 01:28:23;;;;;;;10.82;2.42;;;13.30;99.90;;;;;;5072554;28;20488;-66
2023/09/14 01:30:50;;;;;;;5.22;2.30;;;13.20;99.90;;;;;;5054978;28;20051;-67
2023/09/14 01:33:20;;;;;;;8.05;2.50;;;13.30;99.90;;;;;;5055255;28;20508;-67
2023/09/14 01:35:53;;;;;;;3.33;1.80;;;13.20;99.90;;;;;;5054710;28;20051;-65
2023/09/14 01:38:21;;;;;;;4.95;2.05;;;13.20;99.90;;;;;;5053999;28;20412;-66
2023/09/14 01:40:49;;;;;;;7.05;2.80;;;13.10;99.90;;;;;;5054279;28;20051;-66
2023/09/14 01:43:18;;;;;;;6.13;2.33;;;13.10;99.90;;;;;;5055086;28;20523;-65
2023/09/14 01:45:46;;;;;;;6.40;2.10;;;13.10;99.90;;;;;;5054563;28;20045;-66
2023/09/14 01:48:16;;;;;;;5.18;1.92;;;13.00;99.90;;;;;;5072116;28;20103;-66
2023/09/14 01:50:43;;;;;;;5.97;2.40;;;13.00;99.90;;;;;;5072818;28;20053;-65
2023/09/14 01:53:11;;;;;;;5.38;2.35;;;12.90;99.90;;;;;;5073076;28;20048;-66
2023/09/14 01:55:38;;;;;;;9.80;3.00;;;12.90;99.90;;;;;;5053902;28;20052;-66
2023/09/14 01:58:05;;;;;;;4.68;2.35;;;12.90;99.90;;;;;;5054656;28;20048;-65
2023/09/14 02:00:34;;;;;;;5.45;2.35;;;12.80;99.90;;;;;;5054495;28;20114;-66
2023/09/14 02:03:00;;;;;;;7.32;2.60;;;12.80;99.90;;;;;;5054319;28;20048;-66
2023/09/14 02:05:27;;;;;;;4.10;2.15;;;12.70;99.90;;;;;;5052067;28;20052;-65
2023/09/14 02:07:54;;;;;;;8.18;2.67;;;12.70;99.90;;;;;;5072680;28;20049;-65
2023/09/14 02:10:22;;;;;;;4.90;2.90;;;12.70;99.90;;;;;;5071728;28;20545;-67
2023/09/14 02:12:49;;;;;;;6.07;2.25;;;12.70;99.90;;;;;;5054624;28;20262;-65
2023/09/14 02:15:17;;;;;;;7.90;2.38;;;12.60;99.90;;;;;;5052118;28;20048;-66
2023/09/14 02:17:45;;;;;;;6.50;2.38;;;12.60;99.90;;;;;;5071885;28;20063;-66
2023/09/14 02:20:12;;;;;;;7.57;3.20;;;12.60;99.90;;;;;;5054311;28;20113;-66
2023/09/14 02:22:39;;;;;;;4.68;2.30;;;12.60;99.90;;;;;;5053806;28;20052;-66
2023/09/14 02:25:07;;;;;;;6.88;2.80;;;12.60;99.90;;;;;;5054006;28;20041;-66
2023/09/14 02:27:35;;;;;;;10.15;2.70;;;12.60;99.90;;;;;;5054269;28;20052;-67
2023/09/14 02:30:03;;;;;;;6.57;2.47;;;12.60;99.90;;;;;;5053479;28;20048;-67
2023/09/14 02:32:30;;;;;;;4.38;2.55;;;12.60;99.90;;;;;;5052237;28;20063;-67
2023/09/14 02:34:58;;;;;;;4.40;2.47;;;12.60;99.90;;;;;;5054000;28;20040;-67
2023/09/14 02:37:25;;;;;;;4.28;2.42;;;12.60;99.90;;;;;;5053426;28;20078;-66
2023/09/14 02:39:52;;;;;;;5.75;2.28;;;12.60;99.90;;;;;;5071791;28;20045;-66
2023/09/14 02:42:19;;;;;;;6.47;2.75;;;12.60;99.90;;;;;;5071930;28;20051;-68
2023/09/14 02:44:46;;;;;;;7.28;2.63;;;12.60;99.90;;;;;;5053353;28;20385;-67
2023/09/14 02:47:14;;;;;;;5.72;2.55;;;12.60;99.90;;;;;;5054144;28;20056;-67
2023/09/14 02:49:41;;;;;;;6.68;2.50;;;12.60;99.90;;;;;;5053653;28;20510;-67
2023/09/14 02:52:09;;;;;;;8.57;3.10;;;12.50;99.90;;;;;;5053152;28;20052;-67
2023/09/14 02:54:36;;;;;;;6.03;2.35;;;12.50;99.90;;;;;;5051840;28;20134;-67
2023/09/14 02:57:03;;;;;;;4.97;2.53;;;12.50;99.90;;;;;;5053906;28;20102;-67
2023/09/14 02:59:30;;;;;;;8.65;2.35;;;12.50;99.90;;;;;;5053265;28;20045;-67
2023/09/14 03:01:57;;;;;;;5.78;2.10;;;12.50;99.90;;;;;;5071917;28;20067;-67
2023/09/14 03:04:24;;;;;;;4.75;2.00;;;12.50;99.90;;;;;;5071886;28;20055;-67
2023/09/14 03:06:51;;;;;;;7.25;2.17;;;12.40;99.90;;;;;;5071069;28;20437;-66
2023/09/14 03:09:19;;;;;;;4.80;2.13;;;12.40;99.90;;;;;;5053975;28;20067;-67
2023/09/14 03:11:46;;;;;;;8.20;2.17;;;12.40;99.90;;;;;;5053680;28;20064;-66
2023/09/14 03:14:13;;;;;;;4.55;2.20;;;12.30;99.90;;;;;;5053306;28;20064;-66
2023/09/14 03:16:40;;;;;;;4.40;1.77;;;12.30;99.90;;;;;;5069310;28;20048;-66
2023/09/14 03:19:07;;;;;;;4.20;2.20;;;12.30;99.90;;;;;;5053315;28;20048;-66
2023/09/14 03:21:34;;;;;;;6.78;2.42;;;12.20;99.90;;;;;;5051553;28;20056;-66
2023/09/14 03:24:01;;;;;;;5.72;2.10;;;12.20;99.90;;;;;;5053798;28;20427;-66
2023/09/14 03:26:29;;;;;;;6.30;2.20;;;12.10;99.90;;;;;;5071192;28;20047;-65
2023/09/14 03:28:56;;;;;;;6.18;2.30;;;12.10;99.90;;;;;;5071542;28;20523;-66
2023/09/14 03:31:25;;;;;;;6.10;2.30;;;12.00;99.90;;;;;;5053555;28;20052;-66
2023/09/14 03:33:52;;;;;;;4.43;2.72;;;12.00;99.90;;;;;;5052820;28;20116;-66
2023/09/14 03:36:19;;;;;;;7.25;2.63;;;11.90;99.90;;;;;;5053884;28;20149;-66
2023/09/14 03:38:47;;;;;;;4.05;2.28;;;11.80;99.90;;;;;;5071457;28;20044;-66
2023/09/14 03:41:14;;;;;;;6.50;2.40;;;11.70;99.90;;;;;;5052663;28;20497;-65
2023/09/14 03:43:42;;;;;;;7.43;3.08;;;11.70;99.90;;;;;;5052604;28;20055;-66
2023/09/14 03:46:09;;;;;;;7.07;2.70;;;11.70;99.90;;;;;;5071174;28;20036;-66
2023/09/14 03:48:36;;;;;;;4.18;2.80;;;11.60;99.90;;;;;;5045032;28;20040;-67
2023/09/14 03:51:03;;;;;;;4.25;2.47;;;11.70;99.90;;;;;;5072122;28;20407;-67
2023/09/14 03:53:30;;;;;;;5.47;2.45;;;12.20;99.90;;;;;;5072665;28;20086;-66
2023/09/14 03:55:59;;;;;;;5.43;2.20;;;12.10;99.90;;;;;;5051685;28;20055;-67
2023/09/14 03:58:26;;;;;;;4.32;2.47;;;12.50;99.90;;;;;;5075770;28;20040;-66
2023/09/14 04:00:55;;;;;;;5.22;2.55;;;12.40;99.90;;;;;;5071992;28;20115;-66
2023/09/14 04:03:22;;;;;;;5.68;3.08;;;12.30;99.90;;;;;;5055918;28;20044;-65
2023/09/14 04:05:49;;;;;;;6.65;3.13;;;12.10;99.90;;;;;;5073126;28;20135;-65
2023/09/14 04:08:16;;;;;;;6.03;2.72;;;12.00;99.90;;;;;;5074802;28;20173;-65
2023/09/14 04:10:43;;;;;;;7.10;2.90;;;11.80;99.90;;;;;;5054360;28;20075;-65
2023/09/14 04:13:27;;;;;;;4.80;3.20;;;11.70;99.90;;;;;;5055955;28;20124;-66
2023/09/14 04:15:56;;;;;;;5.30;2.78;;;11.60;99.90;;;;;;5072398;28;20496;-66
2023/09/14 04:18:24;;;;;;;5.22;2.50;;;11.50;99.90;;;;;;5055712;28;20048;-66
2023/09/14 04:20:51;;;;;;;9.23;3.03;;;11.50;99.90;;;;;;5055393;28;20052;-65
2023/09/14 04:23:18;;;;;;;10.13;3.03;;;11.40;99.90;;;;;;5073103;28;20497;-65
2023/09/14 04:25:46;;;;;;;7.30;3.15;;;11.30;99.90;;;;;;5056661;28;20044;-65
2023/09/14 04:28:14;;;;;;;6.43;3.30;;;11.20;99.90;;;;;;5055315;28;20496;-65
2023/09/14 04:30:46;;;;;;;7.30;3.05;;;11.20;99.90;;;;;;5054267;28;20044;-65
2023/09/14 04:33:15;;;;;;;5.00;2.97;;;11.10;99.90;;;;;;5053196;28;20049;-67
2023/09/14 04:35:43;;;;;;;5.95;2.80;;;11.50;99.90;;;;;;5056343;28;20041;-66
2023/09/14 04:38:10;;;;;;;5.70;3.08;;;11.20;99.90;;;;;;5054985;28;20059;-66
2023/09/14 04:40:38;;;;;;;7.38;3.20;;;11.10;99.90;;;;;;5054261;28;20052;-66
2023/09/14 04:43:05;;;;;;;5.78;2.83;;;11.00;99.90;;;;;;5073026;28;20068;-66
2023/09/14 04:45:32;;;;;;;7.80;3.28;;;10.80;99.90;;;;;;5073929;28;20044;-67
2023/09/14 04:48:00;;;;;;;3.83;2.70;;;10.80;99.90;;;;;;5057276;28;20052;-67
2023/09/14 04:50:29;;;;;;;9.93;3.45;;;10.70;99.90;;;;;;5052689;28;20048;-65
2023/09/14 04:52:56;;;;;;;8.10;3.00;;;10.60;99.90;;;;;;5053419;28;20048;-66
2023/09/14 04:55:23;;;;;;;6.30;2.85;;;10.50;99.90;;;;;;5055169;28;20090;-65
2023/09/14 04:57:50;;;;;;;7.93;3.83;;;10.50;99.90;;;;;;5071366;28;20094;-66
2023/09/14 05:00:17;;;;;;;5.55;3.15;;;10.50;99.90;;;;;;5056882;28;20047;-66
2023/09/14 05:02:44;;;;;;;8.05;3.35;;;10.40;99.90;;;;;;5071757;28;20052;-66
2023/09/14 05:05:11;;;;;;;8.93;3.40;;;10.40;99.90;;;;;;5054219;28;20123;-67
2023/09/14 05:07:42;;;;;;;4.45;2.47;;;10.30;99.90;;;;;;5053240;28;20427;-67
2023/09/14 05:10:10;;;;;;;5.65;2.80;;;10.30;99.90;;;;;;5055878;28;20047;-68
2023/09/14 05:12:37;;;;;;;7.55;3.00;;;10.30;99.90;;;;;;5053475;28;20040;-67
2023/09/14 05:15:05;;;;;;;8.38;3.17;;;10.30;99.90;;;;;;5054440;28;20048;-67
2023/09/14 05:17:32;;;;;;;6.03;2.78;;;10.30;99.90;;;;;;5071936;28;20057;-66
2023/09/14 05:19:59;;;;;;;7.20;2.90;;;10.20;99.90;;;;;;5053202;28;20048;-66
2023/09/14 05:22:25;;;;;;;7.55;2.75;;;10.20;99.90;;;;;;5071416;28;20053;-67
2023/09/14 05:24:54;;;;;;;7.72;2.65;;;10.20;99.90;;;;;;5054168;28;20628;-64
2023/09/14 05:27:21;;;;;;;9.77;3.15;;;10.20;99.90;;;;;;5055252;28;20056;-65
2023/09/14 05:29:50;;;;;;;5.70;2.47;;;10.20;99.90;;;;;;5053115;28;20107;-66
2023/09/14 05:32:17;;;;;;;10.30;2.85;;;10.20;99.90;;;;;;5055460;28;20048;-64
2023/09/14 05:34:43;;;;;;;7.70;2.53;;;10.20;99.90;;;;;;5052591;28;20109;-65
2023/09/14 05:37:11;;;;;;;7.60;3.10;;;10.30;99.90;;;;;;5054531;28;20049;-65
2023/09/14 05:39:38;;;;;;;6.78;2.90;;;10.20;99.90;;;;;;5052235;28;20157;-63
2023/09/14 05:42:07;;;;;;;6.30;3.03;;;10.30;99.90;;;;;;5054780;28;20116;-66
2023/09/14 05:44:34;;;;;;;8.23;2.90;;;10.30;99.90;;;;;;5072918;28;20048;-65
2023/09/14 05:47:02;;;;;;;6.18;2.70;;;10.30;99.90;;;;;;5053880;28;20044;-66
2023/09/14 05:49:29;;;;;;;6.20;2.83;;;10.40;99.90;;;;;;5052807;28;20466;-65
2023/09/14 05:51:56;;;;;;;8.18;3.28;;;10.50;99.90;;;;;;5073175;28;20044;-65
2023/09/14 05:54:23;;;;;;;10.05;3.38;;;10.50;99.90;;;;;;5070406;28;20055;-66
2023/09/14 05:56:50;;;;;;;4.85;2.50;;;10.50;99.90;;;;;;5054728;28;20453;-66
2023/09/14 05:59:18;;;;;;;6.47;2.67;;;10.60;99.90;;;;;;5072073;28;20056;-67
2023/09/14 06:01:45;;;;;;;4.45;2.33;;;10.70;99.90;;;;;;5056179;28;20060;-66
2023/09/14 06:04:12;;;;;;;6.70;2.90;;;10.70;99.90;;;;;;5053904;28;20060;-69
2023/09/14 06:06:39;;;;;;;4.85;2.70;;;10.70;99.90;;;;;;5071682;28;20041;-67
2023/09/14 06:09:06;;;;;;;10.88;2.88;;;10.80;99.90;;;;;;5070636;28;20045;-67
2023/09/14 06:11:33;;;;;;;8.50;3.08;;;11.00;99.90;;;;;;5052460;28;20099;-65
2023/09/14 06:14:00;;;;;;;9.55;3.08;;;10.90;99.90;;;;;;5054098;28;20063;-66
2023/09/14 06:16:29;;;;;;;7.30;3.05;;;11.00;99.90;;;;;;5052684;28;20056;-65
2023/09/14 06:18:56;;;;;;;5.22;2.40;;;11.10;99.90;;;;;;5054501;28;20455;-66
2023/09/14 06:21:23;;;;;;;5.05;2.75;;;11.20;99.90;;;;;;5053250;28;20381;-66
2023/09/14 06:23:51;;;;;;;4.65;2.60;;;11.30;99.90;;;;;;5053760;28;20056;-66
2023/09/14 06:26:18;;;;;;;7.82;2.72;;;11.60;99.90;;;;;;5052937;28;20051;-67
2023/09/14 06:28:45;;;;;;;8.13;3.33;;;11.80;99.90;;;;;;5054623;28;20052;-66
2023/09/14 06:31:12;;;;;;;5.85;2.58;;;11.90;99.90;;;;;;5050679;28;20506;-66
2023/09/14 06:33:40;;;;;;;6.50;2.30;;;12.00;99.90;;;;;;5052869;28;20052;-67
2023/09/14 06:36:07;;;;;;;6.20;2.80;;;12.10;99.90;;;;;;5050100;28;20526;-67
2023/09/14 06:38:34;;;;;;;4.78;2.22;;;12.10;99.90;;;;;;5072178;28;20040;-67
2023/09/14 06:41:01;;;;;;;7.82;2.53;;;12.30;99.90;;;;;;5072136;28;20547;-66
2023/09/14 06:43:28;;;;;;;5.03;2.20;;;12.40;99.90;;;;;;5053616;28;20052;-66
2023/09/14 06:45:55;;;;;;;8.75;3.05;;;12.50;99.90;;;;;;5053546;28;20557;-67
2023/09/14 06:48:22;;;;;;;6.57;1.92;;;12.50;99.90;;;;;;5053752;28;20056;-66
2023/09/14 06:50:50;;;;;;;7.75;2.08;;;12.50;99.90;;;;;;5053491;28;20406;-67
2023/09/14 06:53:17;;;;;;;5.45;2.22;;;12.60;99.90;;;;;;5052655;28;20049;-66
2023/09/14 06:55:44;;;;;;;5.63;2.40;;;13.00;99.90;;;;;;5052369;28;20059;-66
2023/09/14 06:58:11;;;;;;;5.43;2.35;;;14.10;99.90;;;;;;5053326;28;20049;-68
2023/09/14 07:00:38;;;;;;;6.88;2.42;;;15.30;99.90;;;;;;5053964;28;20515;-67
2023/09/14 07:03:05;;;;;;;3.90;1.88;;;16.50;99.90;;;;;;5071608;28;20493;-67
2023/09/14 07:05:34;;;;;;;12.48;2.60;;;17.50;99.90;;;;;;5052052;28;20048;-67
2023/09/14 07:08:03;;;;;;;5.57;2.10;;;18.50;99.90;;;;;;5053095;28;20144;-70
2023/09/14 07:10:30;;;;;;;4.30;1.90;;;19.30;99.90;;;;;;5053650;28;20048;-70
2023/09/14 07:12:57;;;;;;;4.13;1.60;;;20.00;99.90;;;;;;5052994;28;20051;-69
2023/09/14 07:15:24;;;;;;;8.07;2.15;;;20.90;99.90;;;;;;5050445;28;20056;-69
2023/09/14 07:17:51;;;;;;;3.72;1.40;;;21.70;99.90;;;;;;5052743;28;20519;-69
2023/09/14 07:20:18;;;;;;;5.28;1.70;;;22.10;99.90;;;;;;5052401;28;20055;-69
2023/09/14 07:22:45;;;;;;;5.03;1.73;;;22.30;99.30;;;;;;5048471;28;20060;-70
2023/09/14 07:25:13;;;;;;;5.63;1.67;;;22.80;98.30;;;;;;5072799;28;20044;-69
2023/09/14 07:27:40;;;;;;;2.75;1.60;;;23.30;97.30;;;;;;5053476;28;20080;-70
2023/09/14 07:30:10;;;;;;;5.38;1.30;;;23.70;96.60;;;;;;5074820;28;20054;-70
2023/09/14 07:32:37;;;;;;;4.18;1.58;;;24.00;95.60;;;;;;5072827;28;20055;-70
2023/09/14 07:35:05;;;;;;;4.47;1.40;;;24.00;95.30;;;;;;5056586;28;20488;-71
2023/09/14 07:37:32;;;;;;;4.97;1.60;;;24.00;94.40;;;;;;5072272;28;20401;-70
2023/09/14 07:39:58;;;;;;;3.50;1.50;;;24.50;94.40;;;;;;5056642;28;20049;-70
2023/09/14 07:42:27;;;;;;;4.85;1.58;;;24.90;93.90;;;;;;5056102;28;20098;-71
2023/09/14 07:44:54;;;;;;;4.88;1.70;;;25.20;92.60;;;;;;5075397;28;20040;-71
2023/09/14 07:47:24;;;;;;;4.28;1.50;;;25.00;92.40;;;;;;5056281;28;20492;-71
2023/09/14 07:49:51;;;;;;;4.07;1.27;;;25.40;91.80;;;;;;5075016;28;20493;-71
2023/09/14 07:52:18;;;;;;;4.45;1.42;;;25.50;91.60;;;;;;5074247;28;20048;-71
2023/09/14 07:54:45;;;;;;;5.53;1.48;;;25.90;91.30;;;;;;5056293;28;20060;-71
2023/09/14 07:57:12;;;;;;;4.53;1.42;;;26.10;90.80;;;;;;5056907;28;20052;-71
2023/09/14 07:59:40;;;;;;;2.33;1.30;;;26.40;90.40;;;;;;5056882;28;20396;-71
2023/09/14 08:02:08;;;;;;;2.88;1.27;;;26.80;90.20;;;;;;5074467;28;20044;-70
2023/09/14 08:04:38;;;;;;;3.47;1.35;;;26.70;90.00;;;;;;5056869;28;20068;-69
2023/09/14 08:07:05;;;;;;;3.88;1.30;;;27.20;88.90;;;;;;5054448;28;20048;-70
2023/09/14 08:09:32;;;;;;;35.45;9.45;;;27.10;87.80;;;;;;5056277;28;20052;-70
2023/09/14 08:11:59;;;;;;;6.05;1.63;;;27.30;87.70;;;;;;5056623;28;20059;-71
2023/09/14 08:14:26;;;;;;;3.92;1.38;;;27.70;86.70;;;;;;5055852;28;20056;-71
2023/09/14 08:16:54;;;;;;;6.95;1.40;;;27.80;85.50;;;;;;5056224;28;20049;-71
2023/09/14 08:19:21;;;;;;;6.95;1.50;;;27.50;83.50;;;;;;5056280;28;20044;-72
2023/09/14 08:21:48;;;;;;;5.30;1.30;;;28.30;82.30;;;;;;5054084;28;20056;-72
2023/09/14 08:24:15;;;;;;;4.72;1.40;;;28.10;81.00;;;;;;5056380;28;20056;-71
2023/09/14 08:26:42;;;;;;;3.00;1.05;;;28.60;81.20;;;;;;5056328;28;20049;-71
2023/09/14 08:29:09;;;;;;;4.43;1.20;;;29.10;79.90;;;;;;5055751;28;20056;-71
2023/09/14 08:31:35;;;;;;;4.35;1.40;;;29.10;79.10;;;;;;5054390;28;20067;-72
2023/09/14 08:34:04;;;;;;;3.95;1.23;;;28.80;77.60;;;;;;5055592;28;20049;-71
2023/09/14 08:36:31;;;;;;;7.03;1.60;;;28.20;76.00;;;;;;5055715;28;20040;-69
2023/09/14 08:38:58;;;;;;;3.67;1.33;;;28.30;77.20;;;;;;5074193;28;20049;-68
2023/09/14 08:41:32;;;;;;;4.82;1.33;;;28.10;77.30;;;;;;5053646;28;20065;-68
2023/09/14 08:44:01;;;;;;;2.85;1.40;;;28.10;76.70;;;;;;5054436;28;20044;-69
2023/09/14 08:46:28;;;;;;;8.00;2.05;;;28.40;76.50;;;;;;5073168;28;20133;-68
2023/09/14 08:48:58;;;;;;;5.25;1.70;;;27.90;76.50;;;;;;5055225;28;20058;-68
2023/09/14 08:51:27;;;;;;;4.18;1.58;;;27.30;75.70;;;;;;5073206;28;20060;-68
2023/09/14 08:53:56;;;;;;;6.90;2.25;;;26.60;76.40;;;;;;5074098;28;20389;-68
2023/09/14 08:56:24;;;;;;;7.28;1.65;;;26.60;77.40;;;;;;5055908;28;20040;-67
2023/09/14 08:58:52;;;;;;;3.95;1.55;;;27.10;77.40;;;;;;5055247;28;20409;-68
2023/09/14 09:01:19;;;;;;;5.38;1.63;;;27.70;77.10;;;;;;5071926;28;20404;-68
2023/09/14 09:03:46;;;;;;;3.10;1.30;;;28.10;75.50;;;;;;5055198;28;20061;-68
2023/09/14 09:06:17;;;;;;;5.05;1.52;;;28.50;75.30;;;;;;5055401;28;20052;-68
2023/09/14 09:08:45;;;;;;;6.78;1.80;;;29.00;74.60;;;;;;5055678;28;20056;-73
2023/09/14 09:11:13;;;;;;;5.88;1.60;;;29.30;73.80;;;;;;5072965;28;20106;-73
2023/09/14 09:13:43;;;;;;;2.60;1.20;;;29.70;73.30;;;;;;5055656;28;20075;-72
2023/09/14 09:16:11;;;;;;;12.65;1.75;;;30.10;72.50;;;;;;5055296;28;20415;-68
2023/09/14 09:19:03;;;;;;;5.78;1.45;;;29.80;72.40;;;;;;5055345;28;20447;-69
2023/09/14 09:21:32;;;;;;;4.05;1.30;;;29.80;71.60;;;;;;5053776;28;20055;-68
2023/09/14 09:24:01;;;;;;;4.25;1.65;;;30.20;72.20;;;;;;5055085;28;20056;-68
2023/09/14 09:26:35;;;;;;;7.37;2.63;;;29.30;71.60;;;;;;5054360;28;20049;-68
2023/09/14 09:29:14;;;;;;;5.32;1.50;;;29.40;71.40;;;;;;5055058;28;20044;-68
2023/09/14 09:31:43;;;;;;;3.80;1.27;;;29.10;71.80;;;;;;5055397;28;20106;-68
2023/09/14 09:34:10;;;;;;;5.38;1.60;;;28.90;73.00;;;;;;5054507;28;20049;-67
2023/09/14 09:36:38;;;;;;;5.78;1.40;;;29.00;73.10;;;;;;5072927;28;20053;-68
2023/09/14 09:39:11;;;;;;;4.43;1.20;;;29.20;72.30;;;;;;5054489;28;20075;-68
2023/09/14 09:41:38;;;;;;;3.58;1.52;;;29.60;71.80;;;;;;5054974;28;20488;-70
2023/09/14 09:44:10;;;;;;;3.40;1.27;;;29.90;70.80;;;;;;5054001;28;20048;-67
2023/09/14 09:46:37;;;;;;;3.72;1.30;;;29.00;71.30;;;;;;5045245;28;20052;-69
2023/09/14 09:49:15;;;;;;;8.27;1.60;;;28.20;73.60;;;;;;5008151;28;20075;-69
2023/09/14 09:51:44;;;;;;;4.20;1.40;;;28.20;74.10;;;;;;5054564;28;20059;-69
2023/09/14 09:54:12;;;;;;;3.72;1.38;;;28.20;73.50;;;;;;5055575;28;20051;-68
2023/09/14 09:56:39;;;;;;;3.30;1.60;;;28.60;72.20;;;;;;5053227;28;20052;-68
2023/09/14 09:59:10;;;;;;;5.53;1.30;;;28.90;71.80;;;;;;5053325;28;20489;-68
2023/09/14 10:01:38;;;;;;;5.50;1.73;;;28.90;70.10;;;;;;5053669;28;20059;-68
2023/09/14 10:04:09;;;;;;;3.50;1.40;;;28.30;71.40;;;;;;5071939;28;20485;-68
2023/09/14 10:06:37;;;;;;;5.63;1.30;;;28.60;70.90;;;;;;5052570;28;20060;-68
2023/09/14 10:09:08;;;;;;;4.47;1.90;;;29.30;70.70;;;;;;5054079;28;20048;-69
2023/09/14 10:11:38;;;;;;;4.43;1.50;;;29.40;70.20;;;;;;5054202;28;20044;-68
2023/09/14 10:14:05;;;;;;;;;;;29.60;70.30;;;;;;5051178;28;20060;-68
2023/09/14 10:16:39;;;;;;;11.68;1.88;;;28.00;70.00;;;;;;5053984;28;20268;-68
2023/09/14 10:19:08;;;;;;;5.57;1.80;;;27.20;72.20;;;;;;5054572;28;20483;-68
2023/09/14 10:21:36;;;;;;;4.85;1.40;;;26.30;73.30;;;;;;5053308;28;20075;-68
2023/09/14 10:24:06;;;;;;;5.18;1.58;;;26.10;74.20;;;;;;5054505;28;20048;-68
2023/09/14 10:26:35;;;;;;;3.80;1.58;;;26.80;73.90;;;;;;5054204;28;20138;-69
2023/09/14 10:29:06;;;;;;;5.00;1.88;;;27.60;73.00;;;;;;5053730;28;20109;-67
2023/09/14 10:31:34;;;;;;;4.35;1.40;;;28.30;71.60;;;;;;5054018;28;20048;-68
2023/09/14 10:34:01;;;;;;;3.47;1.80;;;28.50;71.80;;;;;;5052308;28;20056;-68
2023/09/14 10:36:31;;;;;;;4.63;1.55;;;28.10;71.30;;;;;;5053513;28;20052;-68
2023/09/14 10:38:59;;;;;;;7.30;1.98;;;27.40;71.80;;;;;;5054159;28;20102;-67
2023/09/14 10:41:26;;;;;;;4.18;1.60;;;26.40;73.10;;;;;;5053776;28;20083;-68
2023/09/14 10:43:54;;;;;;;6.57;1.77;;;25.60;74.30;;;;;;5071648;28;20049;-67
2023/09/14 10:46:27;;;;;;;3.97;1.40;;;25.60;74.90;;;;;;5053914;28;20045;-68
2023/09/14 10:48:56;;;;;;;3.58;1.63;;;26.30;75.10;;;;;;5072212;28;20431;-69
2023/09/14 10:51:24;;;;;;;3.97;1.50;;;26.90;73.30;;;;;;5053421;28;20040;-69
2023/09/14 10:53:51;;;;;;;4.00;1.70;;;27.60;72.70;;;;;;5051724;28;20122;-68
2023/09/14 10:56:22;;;;;;;6.65;1.73;;;28.00;72.00;;;;;;5053168;28;20492;-68
2023/09/14 10:58:53;;;;;;;4.35;1.55;;;28.60;72.10;;;;;;5071895;28;20056;-68
2023/09/14 11:01:29;;;;;;;3.00;1.50;;;28.30;72.10;;;;;;5053529;28;20052;-68
2023/09/14 11:04:10;;;;;;;3.67;1.27;;;27.40;72.20;;;;;;5052912;28;20048;-68
2023/09/14 11:06:45;;;;;;;4.63;1.83;;;26.80;72.70;;;;;;5071753;28;20066;-68
2023/09/14 11:09:14;;;;;;;5.50;1.77;;;25.70;74.60;;;;;;5053277;28;20492;-68
2023/09/14 11:11:43;;;;;;;4.47;1.88;;;25.30;75.50;;;;;;5052647;28;20056;-66
2023/09/14 11:14:10;;;;;;;2.88;1.52;;;25.00;76.60;;;;;;5042990;28;20059;-66
2023/09/14 11:16:50;;;;;;;6.30;2.20;;;23.90;78.80;;;;;;5049862;28;20505;-66
2023/09/14 11:19:36;;;;;;;;;;;23.70;78.30;;;;;;5051694;28;20056;-70
2023/09/14 11:22:03;;;;;;;5.43;1.60;;;22.90;80.60;;;;;;5053002;28;19928;-70
2023/09/14 11:24:34;;;;;;;7.10;1.90;;;22.60;81.20;;;;;;5069173;28;20075;-66
2023/09/14 11:27:01;;;;;;;4.00;1.90;;;22.40;82.60;;;;;;5053661;28;20056;-66
2023/09/14 11:29:31;;;;;;;5.80;1.80;;;22.30;82.20;;;;;;5052899;28;20059;-66
2023/09/14 11:32:01;;;;;;;4.32;2.17;;;23.00;82.20;;;;;;5068985;28;20059;-66
2023/09/14 11:34:30;;;;;;;4.43;1.63;;;24.20;79.90;;;;;;5052007;28;20408;-66
2023/09/14 11:36:59;;;;;;;7.38;1.80;;;24.20;78.40;;;;;;5053450;28;20047;-66
2023/09/14 11:39:26;;;;;;;6.43;2.03;;;23.80;78.40;;;;;;5052564;28;20041;-67
2023/09/14 11:42:00;;;;;;;6.85;1.73;;;23.60;79.10;;;;;;5066709;28;20045;-68
2023/09/14 11:44:29;;;;;;;5.90;2.38;;;23.50;80.00;;;;;;5051594;28;20053;-68
2023/09/14 11:46:58;;;;;;;4.15;1.73;;;23.80;79.90;;;;;;5051426;28;20392;-67
2023/09/14 11:49:30;;;;;;;4.88;1.92;;;23.70;79.80;;;;;;5051039;28;20056;-67
2023/09/14 11:51:58;;;;;;;5.57;2.00;;;23.70;80.40;;;;;;5070382;28;20044;-67
2023/09/14 11:54:30;;;;;;;5.72;1.88;;;24.00;79.80;;;;;;5070846;28;20488;-68
2023/09/14 11:57:01;;;;;;;4.68;1.70;;;25.20;78.10;;;;;;5053311;28;20488;-67
2023/09/14 11:59:29;;;;;;;6.03;2.30;;;26.00;77.00;;;;;;5049341;28;20070;-68
2023/09/14 12:01:56;;;;;;;3.78;1.70;;;27.10;76.50;;;;;;5052839;28;20060;-68
2023/09/14 12:04:26;;;;;;;5.40;1.90;;;27.50;75.70;;;;;;5052574;28;20052;-68
2023/09/14 12:06:55;;;;;;;7.63;1.85;;;27.90;74.80;;;;;;5052432;28;20067;-68
2023/09/14 12:09:36;;;;;;;4.00;1.90;;;29.00;74.20;;;;;;5072717;28;20049;-68
2023/09/14 12:12:03;;;;;;;6.32;2.40;;;29.50;73.10;;;;;;5055575;28;20048;-68
2023/09/14 12:14:38;;;;;;;5.22;1.73;;;29.90;72.20;;;;;;5055880;28;20049;-68
2023/09/14 12:17:19;;;;;;;5.45;2.03;;;30.30;70.20;;;;;;5072185;28;20131;-68
2023/09/14 12:19:49;;;;;;;4.07;1.80;;;29.80;69.70;;;;;;5056820;28;20514;-68
2023/09/14 12:22:18;;;;;;;;;;;29.80;71.10;;;;;;5056377;28;20432;-68
2023/09/14 12:24:45;;;;;;;4.90;1.80;;;29.60;71.30;;;;;;5056676;28;19920;-68
2023/09/14 12:27:13;;;;;;;8.32;2.15;;;29.70;72.30;;;;;;5056231;28;20063;-68
2023/09/14 12:29:41;;;;;;;3.55;1.52;;;30.10;70.80;;;;;;5055624;28;20051;-68
2023/09/14 12:32:09;;;;;;;3.83;1.60;;;30.10;71.20;;;;;;5056118;28;20511;-69
2023/09/14 12:34:36;;;;;;;6.03;1.70;;;30.70;70.80;;;;;;5056508;28;20436;-69
2023/09/14 12:37:04;;;;;;;4.57;1.75;;;30.60;70.40;;;;;;5073441;28;20106;-67
2023/09/14 12:39:32;;;;;;;3.70;1.55;;;30.60;70.00;;;;;;5056319;28;20400;-68
2023/09/14 12:42:02;;;;;;;5.78;1.98;;;30.70;69.90;;;;;;5073703;28;20137;-68
2023/09/14 12:44:29;;;;;;;6.50;1.80;;;30.50;69.60;;;;;;5056151;28;20044;-68
2023/09/14 12:46:56;;;;;;;4.50;2.13;;;30.30;70.50;;;;;;5055963;28;20048;-68
2023/09/14 12:49:24;;;;;;;6.20;1.60;;;30.70;70.30;;;;;;5055222;28;20044;-69
2023/09/14 12:51:52;;;;;;;6.22;1.58;;;31.20;70.30;;;;;;5056093;28;20044;-68
2023/09/14 12:54:25;;;;;;;3.92;2.03;;;30.80;70.30;;;;;;5073677;28;20052;-69